sensor_id;sensor_type;location;lat;lon;timestamp;P1;durP1;ratioP1;P2;durP2;ratioP2
25559;SDS011;13450;49.374;8.584;2023-05-10T00:01:14;0.95;;;0.50;;
25559;SDS011;13450;49.374;8.584;2023-05-10T00:03:39;1.05;;;0.57;;
25559;SDS011;13450;49.374;8.584;2023-05-10T00:06:05;0.38;;;0.30;;
25559;SDS011;13450;49.374;8.584;2023-05-10T00:08:30;1.10;;;0.55;;
25559;SDS011;13450;49.374;8.584;2023-05-10T00:10:56;2.80;;;0.88;;
25559;SDS011;13450;49.374;8.584;2023-05-10T00:13:21;1.55;;;0.43;;
25559;SDS011;13450;49.374;8.584;2023-05-10T00:15:47;0.75;;;0.50;;
25559;SDS011;13450;49.374;8.584;2023-05-10T00:18:12;0.75;;;0.47;;
25559;SDS011;13450;49.374;8.584;2023-05-10T00:20:39;1.17;;;0.50;;
25559;SDS011;13450;49.374;8.584;2023-05-10T00:23:05;2.35;;;0.40;;
25559;SDS011;13450;49.374;8.584;2023-05-10T00:25:30;2.25;;;0.50;;
25559;SDS011;13450;49.374;8.584;2023-05-10T00:27:55;0.35;;;0.30;;
25559;SDS011;13450;49.374;8.584;2023-05-10T00:30:22;2.17;;;0.40;;
25559;SDS011;13450;49.374;8.584;2023-05-10T00:32:47;1.23;;;0.40;;
25559;SDS011;13450;49.374;8.584;2023-05-10T00:35:14;0.50;;;0.30;;
25559;SDS011;13450;49.374;8.584;2023-05-10T00:37:40;1.83;;;0.50;;
25559;SDS011;13450;49.374;8.584;2023-05-10T00:40:05;0.82;;;0.40;;
25559;SDS011;13450;49.374;8.584;2023-05-10T00:42:34;0.95;;;0.40;;
25559;SDS011;13450;49.374;8.584;2023-05-10T00:44:59;0.90;;;0.40;;
25559;SDS011;13450;49.374;8.584;2023-05-10T00:47:24;0.68;;;0.30;;
25559;SDS011;13450;49.374;8.584;2023-05-10T00:49:53;1.02;;;0.40;;
25559;SDS011;13450;49.374;8.584;2023-05-10T00:52:21;0.63;;;0.47;;
25559;SDS011;13450;49.374;8.584;2023-05-10T00:54:50;0.95;;;0.40;;
25559;SDS011;13450;49.374;8.584;2023-05-10T00:57:17;1.95;;;0.30;;
25559;SDS011;13450;49.374;8.584;2023-05-10T00:59:42;1.38;;;0.40;;
25559;SDS011;13450;49.374;8.584;2023-05-10T01:02:08;0.73;;;0.45;;
25559;SDS011;13450;49.374;8.584;2023-05-10T01:04:33;0.82;;;0.45;;
25559;SDS011;13450;49.374;8.584;2023-05-10T01:07:00;0.85;;;0.40;;
25559;SDS011;13450;49.374;8.584;2023-05-10T01:12:10;0.68;;;0.40;;
25559;SDS011;13450;49.374;8.584;2023-05-10T01:14:35;0.93;;;0.50;;
25559;SDS011;13450;49.374;8.584;2023-05-10T01:17:01;1.73;;;0.47;;
25559;SDS011;13450;49.374;8.584;2023-05-10T01:19:29;1.50;;;0.50;;
25559;SDS011;13450;49.374;8.584;2023-05-10T01:27:41;1.02;;;0.47;;
25559;SDS011;13450;49.374;8.584;2023-05-10T01:31:18;0.28;;;0.22;;
25559;SDS011;13450;49.374;8.584;2023-05-10T01:33:24;0.95;;;0.50;;
25559;SDS011;13450;49.374;8.584;2023-05-10T01:39:08;0.90;;;0.40;;
25559;SDS011;13450;49.374;8.584;2023-05-10T01:41:49;1.15;;;0.57;;
25559;SDS011;13450;49.374;8.584;2023-05-10T01:47:35;0.70;;;0.40;;
25559;SDS011;13450;49.374;8.584;2023-05-10T01:50:02;0.82;;;0.40;;
25559;SDS011;13450;49.374;8.584;2023-05-10T01:52:33;0.75;;;0.40;;
25559;SDS011;13450;49.374;8.584;2023-05-10T01:55:06;1.05;;;0.50;;
25559;SDS011;13450;49.374;8.584;2023-05-10T01:57:37;1.13;;;0.50;;
25559;SDS011;13450;49.374;8.584;2023-05-10T02:00:06;1.52;;;0.60;;
25559;SDS011;13450;49.374;8.584;2023-05-10T02:02:33;0.98;;;0.47;;
25559;SDS011;13450;49.374;8.584;2023-05-10T02:05:04;1.10;;;0.40;;
25559;SDS011;13450;49.374;8.584;2023-05-10T02:07:31;1.23;;;0.68;;
25559;SDS011;13450;49.374;8.584;2023-05-10T02:10:00;0.90;;;0.43;;
25559;SDS011;13450;49.374;8.584;2023-05-10T02:12:26;2.47;;;0.60;;
25559;SDS011;13450;49.374;8.584;2023-05-10T02:14:54;2.65;;;0.75;;
25559;SDS011;13450;49.374;8.584;2023-05-10T02:17:21;3.30;;;0.80;;
25559;SDS011;13450;49.374;8.584;2023-05-10T02:19:49;1.98;;;0.77;;
25559;SDS011;13450;49.374;8.584;2023-05-10T02:22:17;1.52;;;0.70;;
25559;SDS011;13450;49.374;8.584;2023-05-10T02:24:49;1.52;;;0.60;;
25559;SDS011;13450;49.374;8.584;2023-05-10T02:27:15;0.75;;;0.50;;
25559;SDS011;13450;49.374;8.584;2023-05-10T02:29:43;1.98;;;0.75;;
25559;SDS011;13450;49.374;8.584;2023-05-10T02:32:09;1.50;;;0.60;;
25559;SDS011;13450;49.374;8.584;2023-05-10T02:34:36;2.67;;;0.80;;
25559;SDS011;13450;49.374;8.584;2023-05-10T02:37:03;0.55;;;0.40;;
25559;SDS011;13450;49.374;8.584;2023-05-10T02:39:29;3.15;;;0.60;;
25559;SDS011;13450;49.374;8.584;2023-05-10T02:41:56;1.23;;;0.55;;
25559;SDS011;13450;49.374;8.584;2023-05-10T02:44:22;3.28;;;0.70;;
25559;SDS011;13450;49.374;8.584;2023-05-10T02:46:48;1.30;;;0.70;;
25559;SDS011;13450;49.374;8.584;2023-05-10T02:49:16;1.08;;;0.50;;
25559;SDS011;13450;49.374;8.584;2023-05-10T02:51:47;2.65;;;0.70;;
25559;SDS011;13450;49.374;8.584;2023-05-10T02:54:20;1.23;;;0.60;;
25559;SDS011;13450;49.374;8.584;2023-05-10T02:56:56;1.40;;;0.65;;
25559;SDS011;13450;49.374;8.584;2023-05-10T02:59:24;1.45;;;0.60;;
25559;SDS011;13450;49.374;8.584;2023-05-10T03:01:49;1.35;;;0.60;;
25559;SDS011;13450;49.374;8.584;2023-05-10T03:04:15;2.58;;;0.73;;
25559;SDS011;13450;49.374;8.584;2023-05-10T03:06:40;4.32;;;0.98;;
25559;SDS011;13450;49.374;8.584;2023-05-10T03:09:06;2.72;;;0.90;;
25559;SDS011;13450;49.374;8.584;2023-05-10T03:11:39;2.47;;;0.88;;
25559;SDS011;13450;49.374;8.584;2023-05-10T03:16:59;2.95;;;0.98;;
25559;SDS011;13450;49.374;8.584;2023-05-10T03:19:32;2.10;;;1.00;;
25559;SDS011;13450;49.374;8.584;2023-05-10T03:22:11;3.33;;;1.20;;
25559;SDS011;13450;49.374;8.584;2023-05-10T03:24:41;2.92;;;1.38;;
25559;SDS011;13450;49.374;8.584;2023-05-10T03:27:10;3.40;;;1.50;;
25559;SDS011;13450;49.374;8.584;2023-05-10T03:29:38;4.57;;;1.50;;
25559;SDS011;13450;49.374;8.584;2023-05-10T03:32:04;5.47;;;1.63;;
25559;SDS011;13450;49.374;8.584;2023-05-10T03:34:29;3.65;;;1.60;;
25559;SDS011;13450;49.374;8.584;2023-05-10T03:36:56;4.43;;;1.30;;
25559;SDS011;13450;49.374;8.584;2023-05-10T03:39:21;2.90;;;1.40;;
25559;SDS011;13450;49.374;8.584;2023-05-10T03:41:47;2.47;;;1.17;;
25559;SDS011;13450;49.374;8.584;2023-05-10T03:44:15;2.38;;;1.13;;
25559;SDS011;13450;49.374;8.584;2023-05-10T03:46:40;2.28;;;1.15;;
25559;SDS011;13450;49.374;8.584;2023-05-10T03:49:05;3.33;;;1.17;;
25559;SDS011;13450;49.374;8.584;2023-05-10T03:51:31;3.58;;;1.25;;
25559;SDS011;13450;49.374;8.584;2023-05-10T03:53:58;2.03;;;1.00;;
25559;SDS011;13450;49.374;8.584;2023-05-10T03:56:24;2.65;;;1.10;;
25559;SDS011;13450;49.374;8.584;2023-05-10T03:58:49;1.92;;;1.00;;
25559;SDS011;13450;49.374;8.584;2023-05-10T04:01:14;2.42;;;1.08;;
25559;SDS011;13450;49.374;8.584;2023-05-10T04:03:39;2.38;;;1.10;;
25559;SDS011;13450;49.374;8.584;2023-05-10T04:06:05;2.03;;;0.90;;
25559;SDS011;13450;49.374;8.584;2023-05-10T04:08:33;3.05;;;1.30;;
25559;SDS011;13450;49.374;8.584;2023-05-10T04:11:07;3.53;;;1.23;;
25559;SDS011;13450;49.374;8.584;2023-05-10T04:13:34;1.92;;;0.90;;
25559;SDS011;13450;49.374;8.584;2023-05-10T04:15:59;2.95;;;1.38;;
25559;SDS011;13450;49.374;8.584;2023-05-10T04:18:27;2.00;;;0.90;;
25559;SDS011;13450;49.374;8.584;2023-05-10T04:20:53;6.07;;;1.23;;
25559;SDS011;13450;49.374;8.584;2023-05-10T04:23:18;3.58;;;1.25;;
25559;SDS011;13450;49.374;8.584;2023-05-10T04:25:43;4.70;;;1.40;;
25559;SDS011;13450;49.374;8.584;2023-05-10T04:28:09;2.92;;;1.20;;
25559;SDS011;13450;49.374;8.584;2023-05-10T04:30:36;3.53;;;1.20;;
25559;SDS011;13450;49.374;8.584;2023-05-10T04:33:01;3.88;;;1.80;;
25559;SDS011;13450;49.374;8.584;2023-05-10T04:35:27;4.15;;;1.80;;
25559;SDS011;13450;49.374;8.584;2023-05-10T04:37:53;3.90;;;1.70;;
25559;SDS011;13450;49.374;8.584;2023-05-10T04:40:19;3.72;;;1.30;;
25559;SDS011;13450;49.374;8.584;2023-05-10T04:42:47;6.53;;;2.28;;
25559;SDS011;13450;49.374;8.584;2023-05-10T04:45:15;2.88;;;1.40;;
25559;SDS011;13450;49.374;8.584;2023-05-10T04:47:41;5.03;;;1.90;;
25559;SDS011;13450;49.374;8.584;2023-05-10T04:50:06;4.57;;;1.70;;
25559;SDS011;13450;49.374;8.584;2023-05-10T04:52:33;5.13;;;2.28;;
25559;SDS011;13450;49.374;8.584;2023-05-10T04:54:58;4.88;;;2.00;;
25559;SDS011;13450;49.374;8.584;2023-05-10T04:57:26;3.38;;;1.77;;
25559;SDS011;13450;49.374;8.584;2023-05-10T04:59:51;3.90;;;2.05;;
25559;SDS011;13450;49.374;8.584;2023-05-10T05:02:17;2.95;;;1.52;;
25559;SDS011;13450;49.374;8.584;2023-05-10T05:04:42;3.85;;;1.83;;
25559;SDS011;13450;49.374;8.584;2023-05-10T05:07:08;4.53;;;1.98;;
25559;SDS011;13450;49.374;8.584;2023-05-10T05:09:33;4.30;;;2.00;;
25559;SDS011;13450;49.374;8.584;2023-05-10T05:11:58;3.55;;;1.73;;
25559;SDS011;13450;49.374;8.584;2023-05-10T05:14:24;3.97;;;1.70;;
25559;SDS011;13450;49.374;8.584;2023-05-10T05:16:52;4.25;;;1.98;;
25559;SDS011;13450;49.374;8.584;2023-05-10T05:19:17;4.35;;;1.90;;
25559;SDS011;13450;49.374;8.584;2023-05-10T05:21:46;4.65;;;2.25;;
25559;SDS011;13450;49.374;8.584;2023-05-10T05:24:11;4.78;;;2.38;;
25559;SDS011;13450;49.374;8.584;2023-05-10T05:26:37;5.03;;;2.13;;
25559;SDS011;13450;49.374;8.584;2023-05-10T05:29:03;4.28;;;1.90;;
25559;SDS011;13450;49.374;8.584;2023-05-10T05:31:28;4.43;;;2.10;;
25559;SDS011;13450;49.374;8.584;2023-05-10T05:33:54;3.85;;;1.52;;
25559;SDS011;13450;49.374;8.584;2023-05-10T05:36:19;4.22;;;2.00;;
25559;SDS011;13450;49.374;8.584;2023-05-10T05:38:44;4.18;;;2.25;;
25559;SDS011;13450;49.374;8.584;2023-05-10T05:41:12;3.63;;;1.80;;
25559;SDS011;13450;49.374;8.584;2023-05-10T05:43:38;4.07;;;1.80;;
25559;SDS011;13450;49.374;8.584;2023-05-10T05:46:03;4.55;;;2.00;;
25559;SDS011;13450;49.374;8.584;2023-05-10T05:48:31;7.00;;;2.67;;
25559;SDS011;13450;49.374;8.584;2023-05-10T05:50:56;3.33;;;1.83;;
25559;SDS011;13450;49.374;8.584;2023-05-10T05:53:24;4.93;;;2.10;;
25559;SDS011;13450;49.374;8.584;2023-05-10T05:55:50;5.05;;;2.50;;
25559;SDS011;13450;49.374;8.584;2023-05-10T05:58:17;3.90;;;2.00;;
25559;SDS011;13450;49.374;8.584;2023-05-10T06:00:45;3.33;;;1.73;;
25559;SDS011;13450;49.374;8.584;2023-05-10T06:03:11;3.65;;;1.90;;
25559;SDS011;13450;49.374;8.584;2023-05-10T06:05:36;3.58;;;1.75;;
25559;SDS011;13450;49.374;8.584;2023-05-10T06:08:04;3.53;;;2.00;;
25559;SDS011;13450;49.374;8.584;2023-05-10T06:10:30;8.45;;;2.47;;
25559;SDS011;13450;49.374;8.584;2023-05-10T06:12:55;4.22;;;2.13;;
25559;SDS011;13450;49.374;8.584;2023-05-10T06:15:21;5.65;;;2.00;;
25559;SDS011;13450;49.374;8.584;2023-05-10T06:17:46;4.68;;;2.17;;
25559;SDS011;13450;49.374;8.584;2023-05-10T06:20:14;4.00;;;2.20;;
25559;SDS011;13450;49.374;8.584;2023-05-10T06:22:40;4.85;;;2.10;;
25559;SDS011;13450;49.374;8.584;2023-05-10T06:25:06;4.40;;;2.33;;
25559;SDS011;13450;49.374;8.584;2023-05-10T06:27:32;4.22;;;1.98;;
25559;SDS011;13450;49.374;8.584;2023-05-10T06:29:57;4.25;;;2.08;;
25559;SDS011;13450;49.374;8.584;2023-05-10T06:32:22;5.63;;;2.75;;
25559;SDS011;13450;49.374;8.584;2023-05-10T06:34:48;5.22;;;2.30;;
25559;SDS011;13450;49.374;8.584;2023-05-10T06:37:15;5.18;;;2.47;;
25559;SDS011;13450;49.374;8.584;2023-05-10T06:39:41;4.00;;;1.80;;
25559;SDS011;13450;49.374;8.584;2023-05-10T06:42:06;4.28;;;2.10;;
25559;SDS011;13450;49.374;8.584;2023-05-10T06:44:32;4.20;;;2.00;;
25559;SDS011;13450;49.374;8.584;2023-05-10T06:46:57;5.40;;;2.20;;
25559;SDS011;13450;49.374;8.584;2023-05-10T06:49:22;4.00;;;2.47;;
25559;SDS011;13450;49.374;8.584;2023-05-10T06:51:48;5.50;;;2.30;;
25559;SDS011;13450;49.374;8.584;2023-05-10T06:54:13;6.15;;;2.42;;
25559;SDS011;13450;49.374;8.584;2023-05-10T06:56:38;6.63;;;2.40;;
25559;SDS011;13450;49.374;8.584;2023-05-10T06:59:04;4.47;;;2.30;;
25559;SDS011;13450;49.374;8.584;2023-05-10T07:01:29;4.63;;;2.40;;
25559;SDS011;13450;49.374;8.584;2023-05-10T07:03:57;5.20;;;2.38;;
25559;SDS011;13450;49.374;8.584;2023-05-10T07:06:22;4.30;;;2.17;;
25559;SDS011;13450;49.374;8.584;2023-05-10T07:08:48;5.13;;;2.10;;
25559;SDS011;13450;49.374;8.584;2023-05-10T07:11:13;4.00;;;1.95;;
25559;SDS011;13450;49.374;8.584;2023-05-10T07:13:38;6.38;;;1.92;;
25559;SDS011;13450;49.374;8.584;2023-05-10T07:16:06;5.25;;;2.28;;
25559;SDS011;13450;49.374;8.584;2023-05-10T07:18:32;5.22;;;1.90;;
25559;SDS011;13450;49.374;8.584;2023-05-10T07:20:58;4.40;;;1.92;;
25559;SDS011;13450;49.374;8.584;2023-05-10T07:23:26;3.63;;;1.85;;
25559;SDS011;13450;49.374;8.584;2023-05-10T07:25:52;3.58;;;1.67;;
25559;SDS011;13450;49.374;8.584;2023-05-10T07:28:17;3.10;;;1.70;;
25559;SDS011;13450;49.374;8.584;2023-05-10T07:30:42;4.40;;;1.70;;
25559;SDS011;13450;49.374;8.584;2023-05-10T07:33:12;3.20;;;1.30;;
25559;SDS011;13450;49.374;8.584;2023-05-10T07:35:38;2.53;;;1.30;;
25559;SDS011;13450;49.374;8.584;2023-05-10T07:38:04;3.13;;;1.23;;
25559;SDS011;13450;49.374;8.584;2023-05-10T07:40:29;2.38;;;1.20;;
25559;SDS011;13450;49.374;8.584;2023-05-10T07:42:55;2.33;;;1.20;;
25559;SDS011;13450;49.374;8.584;2023-05-10T07:45:25;2.40;;;1.30;;
25559;SDS011;13450;49.374;8.584;2023-05-10T07:47:50;2.20;;;1.10;;
25559;SDS011;13450;49.374;8.584;2023-05-10T07:50:15;2.80;;;1.15;;
25559;SDS011;13450;49.374;8.584;2023-05-10T07:52:41;3.53;;;1.00;;
25559;SDS011;13450;49.374;8.584;2023-05-10T07:55:06;2.13;;;1.13;;
25559;SDS011;13450;49.374;8.584;2023-05-10T07:57:35;2.45;;;1.15;;
25559;SDS011;13450;49.374;8.584;2023-05-10T08:00:01;2.53;;;1.27;;
25559;SDS011;13450;49.374;8.584;2023-05-10T08:02:27;1.95;;;1.00;;
25559;SDS011;13450;49.374;8.584;2023-05-10T08:04:53;1.40;;;0.80;;
25559;SDS011;13450;49.374;8.584;2023-05-10T08:07:18;1.60;;;0.88;;
25559;SDS011;13450;49.374;8.584;2023-05-10T08:09:43;1.90;;;0.80;;
25559;SDS011;13450;49.374;8.584;2023-05-10T08:12:08;1.90;;;0.90;;
25559;SDS011;13450;49.374;8.584;2023-05-10T08:14:34;1.65;;;0.80;;
25559;SDS011;13450;49.374;8.584;2023-05-10T08:17:01;2.53;;;0.90;;
25559;SDS011;13450;49.374;8.584;2023-05-10T08:19:27;1.70;;;0.88;;
25559;SDS011;13450;49.374;8.584;2023-05-10T08:21:55;3.35;;;1.00;;
25559;SDS011;13450;49.374;8.584;2023-05-10T08:24:21;2.22;;;1.10;;
25559;SDS011;13450;49.374;8.584;2023-05-10T08:26:46;1.77;;;0.85;;
25559;SDS011;13450;49.374;8.584;2023-05-10T08:29:14;2.58;;;0.93;;
25559;SDS011;13450;49.374;8.584;2023-05-10T08:31:40;1.85;;;1.00;;
25559;SDS011;13450;49.374;8.584;2023-05-10T08:34:05;1.88;;;0.80;;
25559;SDS011;13450;49.374;8.584;2023-05-10T08:36:31;2.20;;;1.00;;
25559;SDS011;13450;49.374;8.584;2023-05-10T08:38:59;2.85;;;1.10;;
25559;SDS011;13450;49.374;8.584;2023-05-10T08:41:27;2.40;;;0.98;;
25559;SDS011;13450;49.374;8.584;2023-05-10T08:43:55;2.10;;;0.95;;
25559;SDS011;13450;49.374;8.584;2023-05-10T08:46:21;2.63;;;0.90;;
25559;SDS011;13450;49.374;8.584;2023-05-10T08:48:48;3.88;;;0.90;;
25559;SDS011;13450;49.374;8.584;2023-05-10T08:51:17;2.15;;;0.95;;
25559;SDS011;13450;49.374;8.584;2023-05-10T08:53:46;1.80;;;0.90;;
25559;SDS011;13450;49.374;8.584;2023-05-10T08:56:12;1.83;;;0.80;;
25559;SDS011;13450;49.374;8.584;2023-05-10T08:58:38;1.90;;;1.00;;
25559;SDS011;13450;49.374;8.584;2023-05-10T09:01:03;2.03;;;0.90;;
25559;SDS011;13450;49.374;8.584;2023-05-10T09:03:30;3.83;;;0.80;;
25559;SDS011;13450;49.374;8.584;2023-05-10T09:05:56;1.50;;;0.65;;
25559;SDS011;13450;49.374;8.584;2023-05-10T09:08:25;1.48;;;0.82;;
25559;SDS011;13450;49.374;8.584;2023-05-10T09:10:51;1.05;;;0.70;;
25559;SDS011;13450;49.374;8.584;2023-05-10T09:13:21;1.95;;;0.70;;
25559;SDS011;13450;49.374;8.584;2023-05-10T09:15:48;1.30;;;0.70;;
25559;SDS011;13450;49.374;8.584;2023-05-10T09:18:17;2.38;;;0.70;;
25559;SDS011;13450;49.374;8.584;2023-05-10T09:20:44;1.48;;;0.70;;
25559;SDS011;13450;49.374;8.584;2023-05-10T09:23:10;1.10;;;0.70;;
25559;SDS011;13450;49.374;8.584;2023-05-10T09:25:35;1.83;;;0.70;;
25559;SDS011;13450;49.374;8.584;2023-05-10T09:28:05;2.45;;;0.70;;
25559;SDS011;13450;49.374;8.584;2023-05-10T09:30:31;2.72;;;0.70;;
25559;SDS011;13450;49.374;8.584;2023-05-10T09:32:57;4.13;;;0.80;;
25559;SDS011;13450;49.374;8.584;2023-05-10T09:35:27;1.85;;;0.80;;
25559;SDS011;13450;49.374;8.584;2023-05-10T09:37:54;2.38;;;0.90;;
25559;SDS011;13450;49.374;8.584;2023-05-10T09:40:24;1.88;;;1.00;;
25559;SDS011;13450;49.374;8.584;2023-05-10T09:43:00;1.55;;;0.70;;
25559;SDS011;13450;49.374;8.584;2023-05-10T09:45:28;2.95;;;0.80;;
25559;SDS011;13450;49.374;8.584;2023-05-10T09:47:57;3.17;;;1.58;;
25559;SDS011;13450;49.374;8.584;2023-05-10T09:50:24;2.50;;;0.80;;
25559;SDS011;13450;49.374;8.584;2023-05-10T09:53:00;2.38;;;0.88;;
25559;SDS011;13450;49.374;8.584;2023-05-10T09:55:39;1.33;;;0.77;;
25559;SDS011;13450;49.374;8.584;2023-05-10T09:58:06;3.15;;;0.70;;
25559;SDS011;13450;49.374;8.584;2023-05-10T10:00:38;3.13;;;1.15;;
25559;SDS011;13450;49.374;8.584;2023-05-10T10:03:05;5.23;;;1.87;;
25559;SDS011;13450;49.374;8.584;2023-05-10T10:05:36;3.42;;;1.30;;
25559;SDS011;13450;49.374;8.584;2023-05-10T10:08:02;1.33;;;0.65;;
25559;SDS011;13450;49.374;8.584;2023-05-10T10:10:29;2.60;;;0.50;;
25559;SDS011;13450;49.374;8.584;2023-05-10T10:12:56;2.92;;;0.60;;
25559;SDS011;13450;49.374;8.584;2023-05-10T10:15:21;1.25;;;0.60;;
25559;SDS011;13450;49.374;8.584;2023-05-10T10:17:48;1.55;;;0.47;;
25559;SDS011;13450;49.374;8.584;2023-05-10T10:20:14;3.13;;;0.60;;
25559;SDS011;13450;49.374;8.584;2023-05-10T10:22:40;1.30;;;0.50;;
25559;SDS011;13450;49.374;8.584;2023-05-10T10:25:07;3.03;;;0.55;;
25559;SDS011;13450;49.374;8.584;2023-05-10T10:27:52;0.77;;;0.50;;
25559;SDS011;13450;49.374;8.584;2023-05-10T10:36:20;1.98;;;0.50;;
25559;SDS011;13450;49.374;8.584;2023-05-10T10:41:12;1.08;;;0.52;;
25559;SDS011;13450;49.374;8.584;2023-05-10T10:57:20;0.98;;;0.57;;
25559;SDS011;13450;49.374;8.584;2023-05-10T10:59:46;2.10;;;0.70;;
25559;SDS011;13450;49.374;8.584;2023-05-10T11:02:32;1.65;;;0.50;;
25559;SDS011;13450;49.374;8.584;2023-05-10T11:04:59;1.20;;;0.50;;
25559;SDS011;13450;49.374;8.584;2023-05-10T11:07:24;1.88;;;0.50;;
25559;SDS011;13450;49.374;8.584;2023-05-10T11:09:51;1.20;;;0.55;;
25559;SDS011;13450;49.374;8.584;2023-05-10T11:12:17;1.00;;;0.60;;
25559;SDS011;13450;49.374;8.584;2023-05-10T11:14:42;0.57;;;0.45;;
25559;SDS011;13450;49.374;8.584;2023-05-10T11:20:10;1.38;;;0.52;;
25559;SDS011;13450;49.374;8.584;2023-05-10T11:22:51;0.70;;;0.47;;
25559;SDS011;13450;49.374;8.584;2023-05-10T11:25:18;0.77;;;0.40;;
25559;SDS011;13450;49.374;8.584;2023-05-10T11:27:44;1.52;;;0.55;;
25559;SDS011;13450;49.374;8.584;2023-05-10T11:30:12;1.00;;;0.50;;
25559;SDS011;13450;49.374;8.584;2023-05-10T11:32:38;1.02;;;0.52;;
25559;SDS011;13450;49.374;8.584;2023-05-10T11:35:07;2.08;;;0.60;;
25559;SDS011;13450;49.374;8.584;2023-05-10T11:37:34;1.17;;;0.50;;
25559;SDS011;13450;49.374;8.584;2023-05-10T11:40:00;1.48;;;0.60;;
25559;SDS011;13450;49.374;8.584;2023-05-10T11:42:25;2.28;;;0.60;;
25559;SDS011;13450;49.374;8.584;2023-05-10T11:44:52;1.05;;;0.60;;
25559;SDS011;13450;49.374;8.584;2023-05-10T11:47:18;0.73;;;0.40;;
25559;SDS011;13450;49.374;8.584;2023-05-10T11:49:47;1.45;;;0.55;;
25559;SDS011;13450;49.374;8.584;2023-05-10T11:52:13;0.50;;;0.45;;
25559;SDS011;13450;49.374;8.584;2023-05-10T11:55:12;1.50;;;0.60;;
25559;SDS011;13450;49.374;8.584;2023-05-10T11:57:30;1.33;;;0.63;;
25559;SDS011;13450;49.374;8.584;2023-05-10T11:59:56;1.45;;;0.40;;
25559;SDS011;13450;49.374;8.584;2023-05-10T12:02:22;1.20;;;0.50;;
25559;SDS011;13450;49.374;8.584;2023-05-10T12:04:48;2.30;;;0.80;;
25559;SDS011;13450;49.374;8.584;2023-05-10T12:07:14;0.50;;;0.50;;
25559;SDS011;13450;49.374;8.584;2023-05-10T12:09:43;3.17;;;0.60;;
25559;SDS011;13450;49.374;8.584;2023-05-10T12:12:09;1.85;;;0.73;;
25559;SDS011;13450;49.374;8.584;2023-05-10T12:14:35;3.38;;;0.60;;
25559;SDS011;13450;49.374;8.584;2023-05-10T12:17:00;1.08;;;0.57;;
25559;SDS011;13450;49.374;8.584;2023-05-10T12:19:27;2.30;;;0.60;;
25559;SDS011;13450;49.374;8.584;2023-05-10T12:21:52;2.72;;;0.50;;
25559;SDS011;13450;49.374;8.584;2023-05-10T12:24:17;3.45;;;0.70;;
25559;SDS011;13450;49.374;8.584;2023-05-10T12:26:49;2.35;;;0.60;;
25559;SDS011;13450;49.374;8.584;2023-05-10T12:29:16;2.17;;;0.70;;
25559;SDS011;13450;49.374;8.584;2023-05-10T12:32:01;3.58;;;0.60;;
25559;SDS011;13450;49.374;8.584;2023-05-10T12:34:30;1.45;;;0.65;;
25559;SDS011;13450;49.374;8.584;2023-05-10T12:36:57;2.08;;;0.60;;
25559;SDS011;13450;49.374;8.584;2023-05-10T12:39:23;0.77;;;0.40;;
25559;SDS011;13450;49.374;8.584;2023-05-10T12:41:50;1.27;;;0.50;;
25559;SDS011;13450;49.374;8.584;2023-05-10T12:44:15;1.65;;;0.50;;
25559;SDS011;13450;49.374;8.584;2023-05-10T12:46:41;1.95;;;0.60;;
25559;SDS011;13450;49.374;8.584;2023-05-10T12:49:07;2.45;;;0.50;;
25559;SDS011;13450;49.374;8.584;2023-05-10T12:51:32;2.45;;;0.60;;
25559;SDS011;13450;49.374;8.584;2023-05-10T12:53:57;0.85;;;0.47;;
25559;SDS011;13450;49.374;8.584;2023-05-10T12:56:25;2.95;;;0.60;;
25559;SDS011;13450;49.374;8.584;2023-05-10T12:58:50;1.10;;;0.50;;
25559;SDS011;13450;49.374;8.584;2023-05-10T13:01:16;0.95;;;0.52;;
25559;SDS011;13450;49.374;8.584;2023-05-10T13:03:41;1.30;;;0.60;;
25559;SDS011;13450;49.374;8.584;2023-05-10T13:06:08;2.20;;;0.50;;
25559;SDS011;13450;49.374;8.584;2023-05-10T13:08:33;2.05;;;0.68;;
25559;SDS011;13450;49.374;8.584;2023-05-10T13:10:59;2.20;;;0.57;;
25559;SDS011;13450;49.374;8.584;2023-05-10T13:13:25;1.70;;;0.50;;
25559;SDS011;13450;49.374;8.584;2023-05-10T13:15:52;1.55;;;0.70;;
25559;SDS011;13450;49.374;8.584;2023-05-10T13:18:17;1.98;;;0.68;;
25559;SDS011;13450;49.374;8.584;2023-05-10T13:20:45;1.00;;;0.50;;
25559;SDS011;13450;49.374;8.584;2023-05-10T13:23:10;0.68;;;0.40;;
25559;SDS011;13450;49.374;8.584;2023-05-10T13:25:36;0.80;;;0.50;;
25559;SDS011;13450;49.374;8.584;2023-05-10T13:28:01;0.95;;;0.47;;
25559;SDS011;13450;49.374;8.584;2023-05-10T13:30:27;2.42;;;0.60;;
25559;SDS011;13450;49.374;8.584;2023-05-10T13:32:53;1.27;;;0.50;;
25559;SDS011;13450;49.374;8.584;2023-05-10T13:35:19;2.75;;;0.45;;
25559;SDS011;13450;49.374;8.584;2023-05-10T13:37:47;2.87;;;0.60;;
25559;SDS011;13450;49.374;8.584;2023-05-10T13:40:12;0.73;;;0.45;;
25559;SDS011;13450;49.374;8.584;2023-05-10T13:42:38;3.95;;;0.55;;
25559;SDS011;13450;49.374;8.584;2023-05-10T13:45:03;0.80;;;0.40;;
25559;SDS011;13450;49.374;8.584;2023-05-10T13:47:29;1.38;;;0.47;;
25559;SDS011;13450;49.374;8.584;2023-05-10T13:49:57;1.40;;;0.47;;
25559;SDS011;13450;49.374;8.584;2023-05-10T13:52:23;0.75;;;0.40;;
25559;SDS011;13450;49.374;8.584;2023-05-10T13:54:48;1.90;;;0.50;;
25559;SDS011;13450;49.374;8.584;2023-05-10T13:57:13;0.40;;;0.30;;
25559;SDS011;13450;49.374;8.584;2023-05-10T13:59:41;0.80;;;0.40;;
25559;SDS011;13450;49.374;8.584;2023-05-10T14:02:09;1.67;;;0.53;;
25559;SDS011;13450;49.374;8.584;2023-05-10T14:04:37;0.85;;;0.40;;
25559;SDS011;13450;49.374;8.584;2023-05-10T14:07:04;1.40;;;0.40;;
25559;SDS011;13450;49.374;8.584;2023-05-10T14:09:30;1.90;;;0.47;;
25559;SDS011;13450;49.374;8.584;2023-05-10T14:11:55;1.33;;;0.50;;
25559;SDS011;13450;49.374;8.584;2023-05-10T14:14:21;0.90;;;0.47;;
25559;SDS011;13450;49.374;8.584;2023-05-10T14:16:46;0.75;;;0.40;;
25559;SDS011;13450;49.374;8.584;2023-05-10T14:19:12;1.85;;;0.50;;
25559;SDS011;13450;49.374;8.584;2023-05-10T14:21:37;4.60;;;0.70;;
25559;SDS011;13450;49.374;8.584;2023-05-10T14:24:05;0.60;;;0.30;;
25559;SDS011;13450;49.374;8.584;2023-05-10T14:26:32;1.05;;;0.50;;
25559;SDS011;13450;49.374;8.584;2023-05-10T14:28:59;1.00;;;0.40;;
25559;SDS011;13450;49.374;8.584;2023-05-10T14:31:25;1.90;;;0.50;;
25559;SDS011;13450;49.374;8.584;2023-05-10T14:33:50;1.63;;;0.80;;
25559;SDS011;13450;49.374;8.584;2023-05-10T14:36:16;0.77;;;0.43;;
25559;SDS011;13450;49.374;8.584;2023-05-10T14:38:42;0.65;;;0.40;;
25559;SDS011;13450;49.374;8.584;2023-05-10T14:41:07;1.58;;;0.50;;
25559;SDS011;13450;49.374;8.584;2023-05-10T14:43:33;1.38;;;0.40;;
25559;SDS011;13450;49.374;8.584;2023-05-10T14:45:58;2.55;;;0.50;;
25559;SDS011;13450;49.374;8.584;2023-05-10T14:48:23;1.17;;;0.50;;
25559;SDS011;13450;49.374;8.584;2023-05-10T14:50:49;1.45;;;0.75;;
25559;SDS011;13450;49.374;8.584;2023-05-10T14:53:15;1.27;;;0.43;;
25559;SDS011;13450;49.374;8.584;2023-05-10T14:55:41;1.10;;;0.50;;
25559;SDS011;13450;49.374;8.584;2023-05-10T14:58:06;0.63;;;0.60;;
25559;SDS011;13450;49.374;8.584;2023-05-10T15:00:32;2.25;;;0.60;;
25559;SDS011;13450;49.374;8.584;2023-05-10T15:03:01;0.73;;;0.43;;
25559;SDS011;13450;49.374;8.584;2023-05-10T15:05:26;0.63;;;0.40;;
25559;SDS011;13450;49.374;8.584;2023-05-10T15:07:51;0.68;;;0.40;;
25559;SDS011;13450;49.374;8.584;2023-05-10T15:10:17;2.45;;;0.50;;
25559;SDS011;13450;49.374;8.584;2023-05-10T15:12:43;2.15;;;0.40;;
25559;SDS011;13450;49.374;8.584;2023-05-10T15:15:08;1.83;;;0.32;;
25559;SDS011;13450;49.374;8.584;2023-05-10T15:17:33;0.40;;;0.35;;
25559;SDS011;13450;49.374;8.584;2023-05-10T15:19:59;1.08;;;0.30;;
25559;SDS011;13450;49.374;8.584;2023-05-10T15:24:53;0.50;;;0.30;;
25559;SDS011;13450;49.374;8.584;2023-05-10T15:27:18;0.80;;;0.40;;
25559;SDS011;13450;49.374;8.584;2023-05-10T15:29:43;0.93;;;0.50;;
25559;SDS011;13450;49.374;8.584;2023-05-10T15:32:09;1.55;;;0.57;;